sensor_id;sensor_type;location;lat;lon;timestamp;P1;durP1;ratioP1;P2;durP2;ratioP2
58685;SDS011;44465;53.206;-6.106;2022-09-09T00:01:01;42.72;;;11.90;;
58685;SDS011;44465;53.206;-6.106;2022-09-09T00:03:37;45.97;;;12.30;;
58685;SDS011;44465;53.206;-6.106;2022-09-09T00:06:21;42.10;;;12.18;;
58685;SDS011;44465;53.206;-6.106;2022-09-09T00:09:12;40.47;;;10.20;;
58685;SDS011;44465;53.206;-6.106;2022-09-09T00:17:35;32.42;;;9.35;;
58685;SDS011;44465;53.206;-6.106;2022-09-09T00:20:12;33.00;;;8.80;;
58685;SDS011;44465;53.206;-6.106;2022-09-09T00:22:44;29.52;;;9.35;;
58685;SDS011;44465;53.206;-6.106;2022-09-09T00:25:19;30.83;;;7.82;;
58685;SDS011;44465;53.206;-6.106;2022-09-09T00:27:55;27.95;;;8.77;;
58685;SDS011;44465;53.206;-6.106;2022-09-09T00:30:24;29.50;;;8.05;;
58685;SDS011;44465;53.206;-6.106;2022-09-09T00:33:00;31.85;;;8.30;;
58685;SDS011;44465;53.206;-6.106;2022-09-09T00:35:34;24.50;;;7.57;;
58685;SDS011;44465;53.206;-6.106;2022-09-09T00:38:09;27.63;;;8.07;;
58685;SDS011;44465;53.206;-6.106;2022-09-09T00:40:41;29.77;;;8.25;;
58685;SDS011;44465;53.206;-6.106;2022-09-09T00:43:30;22.40;;;6.20;;
58685;SDS011;44465;53.206;-6.106;2022-09-09T00:46:05;25.15;;;7.72;;
58685;SDS011;44465;53.206;-6.106;2022-09-09T00:54:40;17.67;;;6.65;;
58685;SDS011;44465;53.206;-6.106;2022-09-09T00:59:58;19.42;;;5.90;;
58685;SDS011;44465;53.206;-6.106;2022-09-09T01:02:47;19.20;;;5.95;;
58685;SDS011;44465;53.206;-6.106;2022-09-09T01:12:58;15.38;;;4.88;;
58685;SDS011;44465;53.206;-6.106;2022-09-09T01:15:29;16.13;;;5.10;;
58685;SDS011;44465;53.206;-6.106;2022-09-09T01:18:20;17.17;;;5.10;;
58685;SDS011;44465;53.206;-6.106;2022-09-09T01:26:32;13.85;;;4.70;;
58685;SDS011;44465;53.206;-6.106;2022-09-09T01:29:10;14.77;;;4.80;;
58685;SDS011;44465;53.206;-6.106;2022-09-09T01:31:41;12.95;;;3.65;;
58685;SDS011;44465;53.206;-6.106;2022-09-09T01:34:16;10.82;;;4.20;;
58685;SDS011;44465;53.206;-6.106;2022-09-09T01:37:05;12.52;;;5.03;;
58685;SDS011;44465;53.206;-6.106;2022-09-09T01:39:36;12.43;;;3.88;;
58685;SDS011;44465;53.206;-6.106;2022-09-09T01:42:08;16.85;;;4.30;;
58685;SDS011;44465;53.206;-6.106;2022-09-09T01:44:36;13.35;;;4.10;;
58685;SDS011;44465;53.206;-6.106;2022-09-09T01:47:03;8.10;;;3.15;;
58685;SDS011;44465;53.206;-6.106;2022-09-09T01:49:30;12.52;;;3.97;;
58685;SDS011;44465;53.206;-6.106;2022-09-09T01:51:59;10.55;;;3.90;;
58685;SDS011;44465;53.206;-6.106;2022-09-09T01:54:31;8.45;;;3.30;;
58685;SDS011;44465;53.206;-6.106;2022-09-09T01:57:24;7.78;;;3.50;;
58685;SDS011;44465;53.206;-6.106;2022-09-09T02:05:38;8.30;;;2.90;;
58685;SDS011;44465;53.206;-6.106;2022-09-09T02:08:26;7.70;;;3.20;;
58685;SDS011;44465;53.206;-6.106;2022-09-09T02:11:06;6.22;;;2.70;;
58685;SDS011;44465;53.206;-6.106;2022-09-09T02:13:43;11.88;;;3.20;;
58685;SDS011;44465;53.206;-6.106;2022-09-09T02:18:50;8.82;;;2.95;;
58685;SDS011;44465;53.206;-6.106;2022-09-09T02:21:28;8.65;;;2.83;;
58685;SDS011;44465;53.206;-6.106;2022-09-09T02:23:56;7.18;;;3.05;;
58685;SDS011;44465;53.206;-6.106;2022-09-09T02:26:27;7.60;;;2.53;;
58685;SDS011;44465;53.206;-6.106;2022-09-09T02:29:01;7.32;;;2.75;;
58685;SDS011;44465;53.206;-6.106;2022-09-09T02:31:29;6.53;;;2.90;;
58685;SDS011;44465;53.206;-6.106;2022-09-09T02:34:01;6.40;;;2.50;;
58685;SDS011;44465;53.206;-6.106;2022-09-09T02:36:31;8.63;;;2.50;;
58685;SDS011;44465;53.206;-6.106;2022-09-09T02:38:59;6.45;;;2.55;;
58685;SDS011;44465;53.206;-6.106;2022-09-09T02:41:38;6.32;;;2.88;;
58685;SDS011;44465;53.206;-6.106;2022-09-09T02:44:05;8.55;;;2.83;;
58685;SDS011;44465;53.206;-6.106;2022-09-09T02:50:09;9.93;;;2.78;;
58685;SDS011;44465;53.206;-6.106;2022-09-09T02:52:36;4.72;;;2.50;;
58685;SDS011;44465;53.206;-6.106;2022-09-09T02:55:12;6.45;;;2.60;;
58685;SDS011;44465;53.206;-6.106;2022-09-09T02:57:58;4.57;;;2.35;;
58685;SDS011;44465;53.206;-6.106;2022-09-09T03:00:27;4.95;;;2.08;;
58685;SDS011;44465;53.206;-6.106;2022-09-09T03:02:57;4.22;;;1.95;;
58685;SDS011;44465;53.206;-6.106;2022-09-09T03:05:24;3.92;;;1.77;;
58685;SDS011;44465;53.206;-6.106;2022-09-09T03:07:50;5.05;;;2.25;;
58685;SDS011;44465;53.206;-6.106;2022-09-09T03:10:18;2.97;;;1.60;;
58685;SDS011;44465;53.206;-6.106;2022-09-09T03:12:43;4.50;;;2.28;;
58685;SDS011;44465;53.206;-6.106;2022-09-09T03:15:09;3.15;;;1.88;;
58685;SDS011;44465;53.206;-6.106;2022-09-09T03:17:37;3.97;;;1.80;;
58685;SDS011;44465;53.206;-6.106;2022-09-09T03:20:05;4.35;;;1.90;;
58685;SDS011;44465;53.206;-6.106;2022-09-09T03:22:32;3.58;;;1.63;;
58685;SDS011;44465;53.206;-6.106;2022-09-09T03:24:59;5.35;;;1.75;;
58685;SDS011;44465;53.206;-6.106;2022-09-09T03:27:25;3.00;;;1.70;;
58685;SDS011;44465;53.206;-6.106;2022-09-09T03:29:51;4.25;;;1.98;;
58685;SDS011;44465;53.206;-6.106;2022-09-09T03:32:20;5.25;;;2.08;;
58685;SDS011;44465;53.206;-6.106;2022-09-09T03:34:48;3.97;;;1.90;;
58685;SDS011;44465;53.206;-6.106;2022-09-09T03:37:15;6.55;;;1.90;;
58685;SDS011;44465;53.206;-6.106;2022-09-09T03:39:42;2.85;;;1.45;;
58685;SDS011;44465;53.206;-6.106;2022-09-09T03:42:08;4.50;;;1.65;;
58685;SDS011;44465;53.206;-6.106;2022-09-09T03:44:34;7.05;;;1.77;;
58685;SDS011;44465;53.206;-6.106;2022-09-09T03:47:00;3.05;;;1.38;;
58685;SDS011;44465;53.206;-6.106;2022-09-09T03:49:26;4.35;;;1.88;;
58685;SDS011;44465;53.206;-6.106;2022-09-09T03:51:54;4.25;;;1.48;;
58685;SDS011;44465;53.206;-6.106;2022-09-09T03:54:23;5.20;;;2.03;;
58685;SDS011;44465;53.206;-6.106;2022-09-09T03:56:49;2.00;;;1.02;;
58685;SDS011;44465;53.206;-6.106;2022-09-09T03:59:14;2.10;;;1.27;;
58685;SDS011;44465;53.206;-6.106;2022-09-09T04:01:40;2.22;;;1.30;;
58685;SDS011;44465;53.206;-6.106;2022-09-09T04:04:06;3.22;;;1.33;;
58685;SDS011;44465;53.206;-6.106;2022-09-09T04:08:59;2.15;;;1.13;;
58685;SDS011;44465;53.206;-6.106;2022-09-09T04:11:27;1.83;;;1.30;;
58685;SDS011;44465;53.206;-6.106;2022-09-09T04:13:55;2.20;;;1.30;;
58685;SDS011;44465;53.206;-6.106;2022-09-09T04:16:21;2.10;;;1.55;;
58685;SDS011;44465;53.206;-6.106;2022-09-09T04:18:47;3.30;;;1.45;;
58685;SDS011;44465;53.206;-6.106;2022-09-09T04:21:15;2.35;;;1.42;;
58685;SDS011;44465;53.206;-6.106;2022-09-09T04:23:41;1.60;;;1.50;;
58685;SDS011;44465;53.206;-6.106;2022-09-09T04:26:07;2.58;;;1.33;;
58685;SDS011;44465;53.206;-6.106;2022-09-09T04:28:35;2.20;;;1.40;;
58685;SDS011;44465;53.206;-6.106;2022-09-09T04:31:06;1.73;;;1.23;;
58685;SDS011;44465;53.206;-6.106;2022-09-09T04:33:35;2.42;;;1.05;;
58685;SDS011;44465;53.206;-6.106;2022-09-09T04:36:00;2.15;;;1.02;;
58685;SDS011;44465;53.206;-6.106;2022-09-09T04:38:26;2.08;;;1.02;;
58685;SDS011;44465;53.206;-6.106;2022-09-09T04:40:53;1.27;;;1.13;;
58685;SDS011;44465;53.206;-6.106;2022-09-09T04:43:20;2.20;;;1.10;;
58685;SDS011;44465;53.206;-6.106;2022-09-09T04:48:14;1.53;;;1.00;;
58685;SDS011;44465;53.206;-6.106;2022-09-09T04:50:39;1.75;;;1.17;;
58685;SDS011;44465;53.206;-6.106;2022-09-09T04:53:10;1.83;;;1.02;;
58685;SDS011;44465;53.206;-6.106;2022-09-09T04:55:37;2.55;;;1.10;;
58685;SDS011;44465;53.206;-6.106;2022-09-09T04:58:06;1.10;;;0.93;;
58685;SDS011;44465;53.206;-6.106;2022-09-09T05:00:34;1.92;;;0.93;;
58685;SDS011;44465;53.206;-6.106;2022-09-09T05:03:03;1.25;;;1.08;;
58685;SDS011;44465;53.206;-6.106;2022-09-09T05:05:34;1.98;;;0.90;;
58685;SDS011;44465;53.206;-6.106;2022-09-09T05:08:04;2.53;;;1.00;;
58685;SDS011;44465;53.206;-6.106;2022-09-09T05:10:32;1.23;;;0.90;;
58685;SDS011;44465;53.206;-6.106;2022-09-09T05:12:58;1.42;;;1.20;;
58685;SDS011;44465;53.206;-6.106;2022-09-09T05:15:27;1.50;;;0.90;;
58685;SDS011;44465;53.206;-6.106;2022-09-09T05:17:52;1.30;;;0.75;;
58685;SDS011;44465;53.206;-6.106;2022-09-09T05:20:22;1.67;;;1.10;;
58685;SDS011;44465;53.206;-6.106;2022-09-09T05:22:47;1.08;;;0.90;;
58685;SDS011;44465;53.206;-6.106;2022-09-09T05:25:14;1.53;;;1.03;;
58685;SDS011;44465;53.206;-6.106;2022-09-09T05:27:40;1.00;;;0.80;;
58685;SDS011;44465;53.206;-6.106;2022-09-09T05:30:05;1.70;;;0.98;;
58685;SDS011;44465;53.206;-6.106;2022-09-09T05:32:32;2.63;;;0.82;;
58685;SDS011;44465;53.206;-6.106;2022-09-09T05:34:59;0.90;;;0.68;;
58685;SDS011;44465;53.206;-6.106;2022-09-09T05:37:24;1.75;;;1.00;;
58685;SDS011;44465;53.206;-6.106;2022-09-09T05:39:50;0.70;;;0.70;;
58685;SDS011;44465;53.206;-6.106;2022-09-09T05:42:16;0.60;;;0.60;;
58685;SDS011;44465;53.206;-6.106;2022-09-09T05:44:43;0.77;;;0.70;;
58685;SDS011;44465;53.206;-6.106;2022-09-09T05:47:10;1.05;;;1.00;;
58685;SDS011;44465;53.206;-6.106;2022-09-09T05:49:35;1.55;;;0.80;;
58685;SDS011;44465;53.206;-6.106;2022-09-09T05:52:01;0.85;;;0.85;;
58685;SDS011;44465;53.206;-6.106;2022-09-09T05:54:29;0.52;;;0.52;;
58685;SDS011;44465;53.206;-6.106;2022-09-09T05:56:55;0.70;;;0.50;;
58685;SDS011;44465;53.206;-6.106;2022-09-09T05:59:21;1.30;;;0.80;;
58685;SDS011;44465;53.206;-6.106;2022-09-09T06:01:50;0.93;;;0.80;;
58685;SDS011;44465;53.206;-6.106;2022-09-09T06:04:23;1.17;;;0.47;;
58685;SDS011;44465;53.206;-6.106;2022-09-09T06:06:49;0.50;;;0.50;;
58685;SDS011;44465;53.206;-6.106;2022-09-09T06:11:43;1.60;;;0.52;;
58685;SDS011;44465;53.206;-6.106;2022-09-09T06:14:09;0.43;;;0.40;;
58685;SDS011;44465;53.206;-6.106;2022-09-09T06:16:36;0.73;;;0.70;;
58685;SDS011;44465;53.206;-6.106;2022-09-09T06:21:40;0.60;;;0.60;;
58685;SDS011;44465;53.206;-6.106;2022-09-09T06:24:07;0.70;;;0.70;;
58685;SDS011;44465;53.206;-6.106;2022-09-09T06:26:34;0.50;;;0.50;;
58685;SDS011;44465;53.206;-6.106;2022-09-09T06:29:02;1.42;;;0.70;;
58685;SDS011;44465;53.206;-6.106;2022-09-09T06:31:30;0.88;;;0.60;;
58685;SDS011;44465;53.206;-6.106;2022-09-09T06:34:04;1.10;;;0.57;;
58685;SDS011;44465;53.206;-6.106;2022-09-09T06:36:31;0.82;;;0.60;;
58685;SDS011;44465;53.206;-6.106;2022-09-09T06:41:25;0.80;;;0.40;;
58685;SDS011;44465;53.206;-6.106;2022-09-09T06:43:52;1.60;;;0.70;;
58685;SDS011;44465;53.206;-6.106;2022-09-09T06:46:27;0.88;;;0.60;;
58685;SDS011;44465;53.206;-6.106;2022-09-09T06:48:56;0.75;;;0.73;;
58685;SDS011;44465;53.206;-6.106;2022-09-09T06:53:52;1.25;;;0.90;;
58685;SDS011;44465;53.206;-6.106;2022-09-09T06:58:48;1.48;;;0.65;;
58685;SDS011;44465;53.206;-6.106;2022-09-09T07:01:25;1.25;;;0.80;;
58685;SDS011;44465;53.206;-6.106;2022-09-09T07:03:56;0.63;;;0.60;;
58685;SDS011;44465;53.206;-6.106;2022-09-09T07:06:25;0.70;;;0.70;;
58685;SDS011;44465;53.206;-6.106;2022-09-09T07:08:54;0.52;;;0.52;;
58685;SDS011;44465;53.206;-6.106;2022-09-09T07:11:24;2.35;;;0.80;;
58685;SDS011;44465;53.206;-6.106;2022-09-09T07:13:56;1.35;;;0.85;;
58685;SDS011;44465;53.206;-6.106;2022-09-09T07:16:24;1.73;;;0.88;;
58685;SDS011;44465;53.206;-6.106;2022-09-09T07:18:50;1.40;;;0.98;;
58685;SDS011;44465;53.206;-6.106;2022-09-09T07:21:17;0.90;;;0.80;;
58685;SDS011;44465;53.206;-6.106;2022-09-09T07:23:44;3.30;;;1.08;;
58685;SDS011;44465;53.206;-6.106;2022-09-09T07:26:17;1.75;;;1.10;;
58685;SDS011;44465;53.206;-6.106;2022-09-09T07:28:45;3.65;;;1.00;;
58685;SDS011;44465;53.206;-6.106;2022-09-09T07:31:18;1.20;;;0.75;;
58685;SDS011;44465;53.206;-6.106;2022-09-09T07:33:46;1.98;;;0.75;;
58685;SDS011;44465;53.206;-6.106;2022-09-09T07:38:46;3.13;;;1.00;;
58685;SDS011;44465;53.206;-6.106;2022-09-09T07:41:15;2.10;;;1.15;;
58685;SDS011;44465;53.206;-6.106;2022-09-09T07:43:47;2.83;;;0.80;;
58685;SDS011;44465;53.206;-6.106;2022-09-09T07:46:14;1.45;;;0.88;;
58685;SDS011;44465;53.206;-6.106;2022-09-09T07:48:49;1.05;;;0.73;;
58685;SDS011;44465;53.206;-6.106;2022-09-09T07:51:19;1.17;;;0.77;;
58685;SDS011;44465;53.206;-6.106;2022-09-09T07:53:51;3.10;;;0.82;;
58685;SDS011;44465;53.206;-6.106;2022-09-09T07:56:19;2.58;;;0.75;;
58685;SDS011;44465;53.206;-6.106;2022-09-09T07:58:47;8.48;;;1.25;;
58685;SDS011;44465;53.206;-6.106;2022-09-09T08:01:18;2.42;;;0.73;;
58685;SDS011;44465;53.206;-6.106;2022-09-09T08:03:47;2.53;;;1.00;;
58685;SDS011;44465;53.206;-6.106;2022-09-09T08:06:17;0.70;;;0.60;;
58685;SDS011;44465;53.206;-6.106;2022-09-09T08:08:43;2.47;;;0.85;;
58685;SDS011;44465;53.206;-6.106;2022-09-09T08:11:10;1.20;;;0.80;;
58685;SDS011;44465;53.206;-6.106;2022-09-09T08:13:38;0.70;;;0.70;;
58685;SDS011;44465;53.206;-6.106;2022-09-09T08:16:09;0.95;;;0.85;;
58685;SDS011;44465;53.206;-6.106;2022-09-09T08:18:40;4.28;;;1.00;;
58685;SDS011;44465;53.206;-6.106;2022-09-09T08:23:31;1.13;;;0.82;;
58685;SDS011;44465;53.206;-6.106;2022-09-09T08:26:04;0.65;;;0.65;;
58685;SDS011;44465;53.206;-6.106;2022-09-09T08:28:36;1.42;;;0.80;;
58685;SDS011;44465;53.206;-6.106;2022-09-09T08:31:06;1.40;;;1.30;;
58685;SDS011;44465;53.206;-6.106;2022-09-09T08:33:32;3.80;;;1.00;;
58685;SDS011;44465;53.206;-6.106;2022-09-09T08:35:58;2.63;;;0.90;;
58685;SDS011;44465;53.206;-6.106;2022-09-09T08:38:24;5.25;;;1.20;;
58685;SDS011;44465;53.206;-6.106;2022-09-09T08:40:50;2.95;;;1.00;;
58685;SDS011;44465;53.206;-6.106;2022-09-09T08:43:24;2.97;;;1.08;;
58685;SDS011;44465;53.206;-6.106;2022-09-09T08:46:27;4.95;;;1.10;;
58685;SDS011;44465;53.206;-6.106;2022-09-09T08:48:52;3.60;;;1.00;;
58685;SDS011;44465;53.206;-6.106;2022-09-09T08:51:20;2.78;;;1.10;;
58685;SDS011;44465;53.206;-6.106;2022-09-09T08:53:47;1.33;;;0.82;;
58685;SDS011;44465;53.206;-6.106;2022-09-09T08:56:16;1.27;;;1.05;;
58685;SDS011;44465;53.206;-6.106;2022-09-09T08:58:53;1.88;;;1.20;;
58685;SDS011;44465;53.206;-6.106;2022-09-09T09:12:50;3.58;;;1.10;;
58685;SDS011;44465;53.206;-6.106;2022-09-09T09:15:19;7.35;;;1.58;;
58685;SDS011;44465;53.206;-6.106;2022-09-09T09:17:49;2.72;;;1.10;;
58685;SDS011;44465;53.206;-6.106;2022-09-09T09:20:16;4.80;;;1.85;;
58685;SDS011;44465;53.206;-6.106;2022-09-09T09:22:55;6.45;;;1.65;;
58685;SDS011;44465;53.206;-6.106;2022-09-09T09:25:27;2.33;;;1.25;;
58685;SDS011;44465;53.206;-6.106;2022-09-09T09:28:00;7.25;;;1.65;;
58685;SDS011;44465;53.206;-6.106;2022-09-09T09:33:29;1.25;;;0.98;;
58685;SDS011;44465;53.206;-6.106;2022-09-09T09:36:02;8.45;;;1.30;;
58685;SDS011;44465;53.206;-6.106;2022-09-09T09:38:28;6.10;;;1.20;;
58685;SDS011;44465;53.206;-6.106;2022-09-09T09:40:58;5.55;;;1.00;;
58685;SDS011;44465;53.206;-6.106;2022-09-09T09:43:29;2.83;;;1.02;;
58685;SDS011;44465;53.206;-6.106;2022-09-09T09:45:59;4.05;;;1.15;;
58685;SDS011;44465;53.206;-6.106;2022-09-09T09:48:26;6.70;;;1.60;;
58685;SDS011;44465;53.206;-6.106;2022-09-09T09:50:59;5.18;;;1.38;;
58685;SDS011;44465;53.206;-6.106;2022-09-09T09:53:32;2.47;;;0.80;;
58685;SDS011;44465;53.206;-6.106;2022-09-09T09:56:11;4.05;;;1.13;;
58685;SDS011;44465;53.206;-6.106;2022-09-09T10:01:23;6.40;;;1.25;;
58685;SDS011;44465;53.206;-6.106;2022-09-09T10:03:53;4.07;;;1.33;;
58685;SDS011;44465;53.206;-6.106;2022-09-09T10:06:32;5.45;;;1.73;;
58685;SDS011;44465;53.206;-6.106;2022-09-09T10:08:59;4.13;;;1.00;;
58685;SDS011;44465;53.206;-6.106;2022-09-09T10:14:18;1.77;;;0.80;;
58685;SDS011;44465;53.206;-6.106;2022-09-09T10:19:33;3.35;;;1.23;;
58685;SDS011;44465;53.206;-6.106;2022-09-09T10:30:21;4.07;;;1.00;;
58685;SDS011;44465;53.206;-6.106;2022-09-09T10:38:29;5.50;;;1.00;;
58685;SDS011;44465;53.206;-6.106;2022-09-09T10:55:43;6.90;;;1.30;;
58685;SDS011;44465;53.206;-6.106;2022-09-09T10:58:23;9.85;;;1.27;;
58685;SDS011;44465;53.206;-6.106;2022-09-09T11:00:56;9.63;;;2.50;;
58685;SDS011;44465;53.206;-6.106;2022-09-09T11:03:30;4.43;;;1.20;;
58685;SDS011;44465;53.206;-6.106;2022-09-09T11:06:04;8.98;;;1.10;;
58685;SDS011;44465;53.206;-6.106;2022-09-09T11:08:32;6.32;;;1.20;;
58685;SDS011;44465;53.206;-6.106;2022-09-09T11:11:04;6.13;;;1.23;;
58685;SDS011;44465;53.206;-6.106;2022-09-09T11:25:39;4.30;;;1.15;;
58685;SDS011;44465;53.206;-6.106;2022-09-09T11:31:04;5.07;;;1.17;;
58685;SDS011;44465;53.206;-6.106;2022-09-09T11:44:19;3.47;;;0.98;;
58685;SDS011;44465;53.206;-6.106;2022-09-09T11:46:53;2.30;;;0.90;;
58685;SDS011;44465;53.206;-6.106;2022-09-09T11:49:29;2.03;;;1.02;;
58685;SDS011;44465;53.206;-6.106;2022-09-09T11:54:50;3.20;;;1.20;;
58685;SDS011;44465;53.206;-6.106;2022-09-09T11:57:20;2.28;;;1.00;;
58685;SDS011;44465;53.206;-6.106;2022-09-09T11:59:51;1.23;;;0.85;;
58685;SDS011;44465;53.206;-6.106;2022-09-09T12:02:24;3.47;;;1.30;;
58685;SDS011;44465;53.206;-6.106;2022-09-09T12:04:56;1.55;;;0.73;;
58685;SDS011;44465;53.206;-6.106;2022-09-09T12:10:19;2.85;;;0.80;;
58685;SDS011;44465;53.206;-6.106;2022-09-09T12:12:45;1.58;;;0.80;;
58685;SDS011;44465;53.206;-6.106;2022-09-09T12:17:47;2.55;;;0.93;;
58685;SDS011;44465;53.206;-6.106;2022-09-09T12:20:19;2.47;;;0.90;;
58685;SDS011;44465;53.206;-6.106;2022-09-09T12:31:26;2.97;;;1.33;;
58685;SDS011;44465;53.206;-6.106;2022-09-09T12:33:42;4.95;;;1.10;;
58685;SDS011;44465;53.206;-6.106;2022-09-09T12:36:18;2.67;;;1.05;;
58685;SDS011;44465;53.206;-6.106;2022-09-09T12:38:47;3.37;;;1.03;;
58685;SDS011;44465;53.206;-6.106;2022-09-09T12:41:19;1.85;;;1.10;;
58685;SDS011;44465;53.206;-6.106;2022-09-09T12:43:45;3.08;;;1.10;;
58685;SDS011;44465;53.206;-6.106;2022-09-09T12:46:14;1.17;;;0.80;;
58685;SDS011;44465;53.206;-6.106;2022-09-09T12:53:53;2.05;;;1.00;;
58685;SDS011;44465;53.206;-6.106;2022-09-09T12:56:24;1.00;;;1.00;;
58685;SDS011;44465;53.206;-6.106;2022-09-09T12:58:52;3.97;;;1.10;;
58685;SDS011;44465;53.206;-6.106;2022-09-09T13:01:21;4.93;;;1.05;;
58685;SDS011;44465;53.206;-6.106;2022-09-09T13:03:55;2.25;;;1.10;;
58685;SDS011;44465;53.206;-6.106;2022-09-09T13:06:27;1.80;;;0.80;;
58685;SDS011;44465;53.206;-6.106;2022-09-09T13:08:55;1.90;;;0.73;;
58685;SDS011;44465;53.206;-6.106;2022-09-09T13:13:56;2.95;;;0.88;;
58685;SDS011;44465;53.206;-6.106;2022-09-09T13:16:24;3.17;;;1.02;;
58685;SDS011;44465;53.206;-6.106;2022-09-09T13:18:57;2.60;;;1.10;;
58685;SDS011;44465;53.206;-6.106;2022-09-09T13:21:34;1.42;;;0.88;;
58685;SDS011;44465;53.206;-6.106;2022-09-09T13:24:00;2.92;;;0.98;;
58685;SDS011;44465;53.206;-6.106;2022-09-09T13:26:29;1.98;;;0.95;;
58685;SDS011;44465;53.206;-6.106;2022-09-09T13:28:55;2.70;;;0.90;;
58685;SDS011;44465;53.206;-6.106;2022-09-09T13:31:33;0.80;;;0.80;;
58685;SDS011;44465;53.206;-6.106;2022-09-09T13:34:11;1.33;;;0.90;;
58685;SDS011;44465;53.206;-6.106;2022-09-09T13:37:07;1.60;;;1.00;;
58685;SDS011;44465;53.206;-6.106;2022-09-09T13:40:02;1.33;;;0.90;;
58685;SDS011;44465;53.206;-6.106;2022-09-09T13:42:31;3.78;;;1.20;;
58685;SDS011;44465;53.206;-6.106;2022-09-09T13:45:02;1.23;;;0.90;;
58685;SDS011;44465;53.206;-6.106;2022-09-09T13:47:35;1.75;;;0.80;;
58685;SDS011;44465;53.206;-6.106;2022-09-09T13:52:47;2.10;;;1.02;;
58685;SDS011;44465;53.206;-6.106;2022-09-09T13:55:15;1.52;;;0.80;;
58685;SDS011;44465;53.206;-6.106;2022-09-09T13:57:49;1.00;;;0.90;;
58685;SDS011;44465;53.206;-6.106;2022-09-09T14:00:16;0.90;;;0.90;;
58685;SDS011;44465;53.206;-6.106;2022-09-09T14:02:41;0.60;;;0.60;;
58685;SDS011;44465;53.206;-6.106;2022-09-09T14:05:09;0.80;;;0.80;;
58685;SDS011;44465;53.206;-6.106;2022-09-09T14:07:36;1.38;;;0.93;;
58685;SDS011;44465;53.206;-6.106;2022-09-09T14:10:04;2.80;;;0.80;;
58685;SDS011;44465;53.206;-6.106;2022-09-09T14:12:30;1.23;;;0.73;;
58685;SDS011;44465;53.206;-6.106;2022-09-09T14:14:56;2.15;;;1.00;;
58685;SDS011;44465;53.206;-6.106;2022-09-09T14:17:21;1.98;;;0.90;;
58685;SDS011;44465;53.206;-6.106;2022-09-09T14:19:47;0.77;;;0.77;;
58685;SDS011;44465;53.206;-6.106;2022-09-09T14:22:13;1.20;;;1.10;;
58685;SDS011;44465;53.206;-6.106;2022-09-09T14:24:40;1.27;;;0.88;;
58685;SDS011;44465;53.206;-6.106;2022-09-09T14:27:06;1.00;;;0.82;;
58685;SDS011;44465;53.206;-6.106;2022-09-09T14:29:31;0.90;;;0.90;;
58685;SDS011;44465;53.206;-6.106;2022-09-09T14:31:58;1.30;;;1.00;;
58685;SDS011;44465;53.206;-6.106;2022-09-09T14:36:50;2.35;;;1.10;;
58685;SDS011;44465;53.206;-6.106;2022-09-09T14:39:16;0.82;;;0.82;;
58685;SDS011;44465;53.206;-6.106;2022-09-09T14:41:41;2.90;;;1.00;;
58685;SDS011;44465;53.206;-6.106;2022-09-09T14:44:07;1.35;;;1.00;;
58685;SDS011;44465;53.206;-6.106;2022-09-09T14:46:33;1.77;;;0.90;;
58685;SDS011;44465;53.206;-6.106;2022-09-09T14:48:59;1.13;;;0.98;;
58685;SDS011;44465;53.206;-6.106;2022-09-09T14:51:25;0.93;;;0.90;;
58685;SDS011;44465;53.206;-6.106;2022-09-09T14:53:57;0.93;;;0.80;;
58685;SDS011;44465;53.206;-6.106;2022-09-09T14:56:25;1.42;;;1.10;;
58685;SDS011;44465;53.206;-6.106;2022-09-09T14:58:56;0.82;;;0.82;;
58685;SDS011;44465;53.206;-6.106;2022-09-09T15:01:23;1.63;;;1.15;;
58685;SDS011;44465;53.206;-6.106;2022-09-09T15:03:53;2.50;;;0.95;;
58685;SDS011;44465;53.206;-6.106;2022-09-09T15:06:20;1.27;;;0.88;;
58685;SDS011;44465;53.206;-6.106;2022-09-09T15:11:14;1.75;;;0.98;;
58685;SDS011;44465;53.206;-6.106;2022-09-09T15:13:41;0.95;;;0.95;;
58685;SDS011;44465;53.206;-6.106;2022-09-09T15:18:37;1.15;;;1.10;;
58685;SDS011;44465;53.206;-6.106;2022-09-09T15:21:08;1.00;;;1.00;;
58685;SDS011;44465;53.206;-6.106;2022-09-09T15:23:41;1.05;;;1.05;;
58685;SDS011;44465;53.206;-6.106;2022-09-09T15:26:07;1.35;;;0.98;;
58685;SDS011;44465;53.206;-6.106;2022-09-09T15:28:34;0.90;;;0.75;;
58685;SDS011;44465;53.206;-6.106;2022-09-09T15:31:04;1.17;;;0.90;;
58685;SDS011;44465;53.206;-6.106;2022-09-09T15:33:51;1.35;;;1.00;;
58685;SDS011;44465;53.206;-6.106;2022-09-09T15:38:53;1.88;;;0.80;;
58685;SDS011;44465;53.206;-6.106;2022-09-09T15:41:20;1.00;;;1.00;;
58685;SDS011;44465;53.206;-6.106;2022-09-09T15:43:54;0.65;;;0.65;;
58685;SDS011;44465;53.206;-6.106;2022-09-09T15:51:35;0.90;;;0.90;;
58685;SDS011;44465;53.206;-6.106;2022-09-09T15:54:02;0.88;;;0.77;;
58685;SDS011;44465;53.206;-6.106;2022-09-09T15:56:29;1.52;;;1.15;;
58685;SDS011;44465;53.206;-6.106;2022-09-09T15:58:55;0.80;;;0.77;;
58685;SDS011;44465;53.206;-6.106;2022-09-09T16:01:22;1.15;;;1.00;;
58685;SDS011;44465;53.206;-6.106;2022-09-09T16:03:49;1.10;;;0.98;;
58685;SDS011;44465;53.206;-6.106;2022-09-09T16:06:17;1.80;;;1.00;;
58685;SDS011;44465;53.206;-6.106;2022-09-09T16:08:44;0.73;;;0.73;;
58685;SDS011;44465;53.206;-6.106;2022-09-09T16:11:15;1.95;;;0.77;;
58685;SDS011;44465;53.206;-6.106;2022-09-09T16:13:45;1.60;;;0.93;;
58685;SDS011;44465;53.206;-6.106;2022-09-09T16:16:12;0.93;;;0.93;;
58685;SDS011;44465;53.206;-6.106;2022-09-09T16:18:48;0.73;;;0.73;;
58685;SDS011;44465;53.206;-6.106;2022-09-09T16:21:23;0.80;;;0.80;;
58685;SDS011;44465;53.206;-6.106;2022-09-09T16:23:49;0.70;;;0.70;;
58685;SDS011;44465;53.206;-6.106;2022-09-09T16:26:21;0.70;;;0.70;;
58685;SDS011;44465;53.206;-6.106;2022-09-09T16:28:47;0.80;;;0.80;;
58685;SDS011;44465;53.206;-6.106;2022-09-09T16:31:14;0.80;;;0.80;;
58685;SDS011;44465;53.206;-6.106;2022-09-09T16:33:42;0.70;;;0.70;;
58685;SDS011;44465;53.206;-6.106;2022-09-09T16:36:14;1.40;;;0.93;;
58685;SDS011;44465;53.206;-6.106;2022-09-09T16:38:41;0.98;;;0.77;;
58685;SDS011;44465;53.206;-6.106;2022-09-09T16:41:11;0.75;;;0.75;;
58685;SDS011;44465;53.206;-6.106;2022-09-09T16:43:39;2.80;;;1.15;;
58685;SDS011;44465;53.206;-6.106;2022-09-09T16:46:15;1.67;;;0.85;;
58685;SDS011;44465;53.206;-6.106;2022-09-09T16:48:43;1.98;;;0.80;;
58685;SDS011;44465;53.206;-6.106;2022-09-09T16:51:17;2.15;;;1.20;;
58685;SDS011;44465;53.206;-6.106;2022-09-09T16:53:45;1.10;;;1.00;;
58685;SDS011;44465;53.206;-6.106;2022-09-09T16:56:16;3.92;;;0.95;;
58685;SDS011;44465;53.206;-6.106;2022-09-09T16:58:43;3.63;;;1.40;;
58685;SDS011;44465;53.206;-6.106;2022-09-09T17:01:15;2.65;;;1.00;;
58685;SDS011;44465;53.206;-6.106;2022-09-09T17:03:40;3.83;;;1.02;;
58685;SDS011;44465;53.206;-6.106;2022-09-09T17:06:10;4.88;;;1.17;;
58685;SDS011;44465;53.206;-6.106;2022-09-09T17:08:37;7.57;;;1.83;;
58685;SDS011;44465;53.206;-6.106;2022-09-09T17:11:10;4.70;;;1.30;;
58685;SDS011;44465;53.206;-6.106;2022-09-09T17:13:40;4.43;;;1.63;;
58685;SDS011;44465;53.206;-6.106;2022-09-09T17:16:06;7.38;;;2.53;;
58685;SDS011;44465;53.206;-6.106;2022-09-09T17:18:33;6.07;;;2.25;;
58685;SDS011;44465;53.206;-6.106;2022-09-09T17:21:03;8.77;;;3.55;;
58685;SDS011;44465;53.206;-6.106;2022-09-09T17:23:32;23.20;;;11.65;;
58685;SDS011;44465;53.206;-6.106;2022-09-09T17:25:59;24.23;;;11.40;;
58685;SDS011;44465;53.206;-6.106;2022-09-09T17:28:25;52.40;;;27.60;;
58685;SDS011;44465;53.206;-6.106;2022-09-09T17:30:56;49.00;;;22.08;;
58685;SDS011;44465;53.206;-6.106;2022-09-09T17:33:23;61.38;;;28.80;;
58685;SDS011;44465;53.206;-6.106;2022-09-09T17:35:48;79.40;;;36.75;;
58685;SDS011;44465;53.206;-6.106;2022-09-09T17:38:14;66.68;;;32.80;;
58685;SDS011;44465;53.206;-6.106;2022-09-09T17:40:40;63.60;;;31.60;;
58685;SDS011;44465;53.206;-6.106;2022-09-09T17:43:07;55.97;;;27.40;;
58685;SDS011;44465;53.206;-6.106;2022-09-09T17:45:34;56.60;;;27.83;;
58685;SDS011;44465;53.206;-6.106;2022-09-09T17:47:59;58.92;;;27.70;;
58685;SDS011;44465;53.206;-6.106;2022-09-09T17:50:25;51.92;;;25.02;;